Island Lake, Canada
Current Conditions -  °F | °C
As of 3:00 PM on Saturday 20 Dec 2014 (Local Time) from CYIV Reporting Station
Light Snow Light Snow  
Wind Chill: 16°   Ceiling: 800
Heat Index: 23°   Visibility: 15mi
Dew Point: 21°   Wind: 6mph
Humidity: 93%   Direction: 130°SE
Pressure: 29.97"   Gusts: NA
Location:  53.85°N, 94.65°W
Report Text: CYIV 202100Z 13005KT 15SM -SN OVC008 M05/M06 A2997 RMK SC8SLP167
Loading
Personal Weather Stations






























Interactive Weather Map New forecast layout! Learn more

10-Day Weather Forecast

Advertisements
Track Severe Weather on mobile